createdAt,value
2019-02-12T00:01:25.843Z,57.90
2019-02-12T00:02:25.579Z,55.50
2019-02-12T00:04:17.943Z,49.60
2019-02-12T00:05:17.700Z,53.10
2019-02-12T00:07:11.478Z,56.60
2019-02-12T00:08:11.305Z,58.70
2019-02-12T00:10:04.671Z,55.80
2019-02-12T00:11:04.631Z,65.70
2019-02-12T00:12:58.603Z,56.30
2019-02-12T00:13:57.690Z,60.70
2019-02-12T00:15:50.272Z,58.10
2019-02-12T00:16:50.290Z,60.20
2019-02-12T00:18:43.643Z,59.70
2019-02-12T00:19:43.662Z,62.90
2019-02-12T00:21:36.111Z,57.70
2019-02-12T00:22:36.075Z,59.70
2019-02-12T00:24:28.869Z,60.60
2019-02-12T00:25:28.396Z,61.50
2019-02-12T00:27:22.013Z,59.50
2019-02-12T00:28:21.748Z,59.10
2019-02-12T00:30:14.355Z,65.40
2019-02-12T00:31:14.339Z,59.40
2019-02-12T00:33:06.716Z,58.30
2019-02-12T00:34:06.469Z,56.10
2019-02-12T00:36:00.291Z,53.80
2019-02-12T00:37:00.041Z,59.90
2019-02-12T00:38:52.109Z,62.00
2019-02-12T00:39:52.338Z,64.60
2019-02-12T00:41:44.854Z,60.50
2019-02-12T00:42:44.427Z,63.90
2019-02-12T00:44:38.067Z,58.30
2019-02-12T00:45:38.063Z,68.90
2019-02-12T00:47:30.379Z,66.20
2019-02-12T00:48:30.379Z,66.20
2019-02-12T00:50:23.692Z,60.00
2019-02-12T00:51:23.435Z,64.10
2019-02-12T00:53:17.311Z,65.50
2019-02-12T00:54:17.035Z,67.30
2019-02-12T00:56:09.124Z,64.30
2019-02-12T00:57:09.350Z,75.90
2019-02-12T00:59:02.013Z,64.10
2019-02-12T01:00:01.691Z,66.40
2019-02-12T01:01:54.038Z,70.10
2019-02-12T01:02:53.758Z,69.50
2019-02-12T01:04:47.627Z,64.20
2019-02-12T01:05:47.432Z,71.70
2019-02-12T01:09:11.326Z,79.90
2019-02-12T01:10:11.336Z,68.80
2019-02-12T01:12:03.568Z,74.80
2019-02-12T01:13:03.657Z,67.00
2019-02-12T01:14:56.989Z,71.10
2019-02-12T01:15:57.005Z,66.70
2019-02-12T01:17:50.290Z,78.70
2019-02-12T01:18:50.534Z,71.60
2019-02-12T01:20:43.212Z,77.00
2019-02-12T01:21:43.202Z,81.10
2019-02-12T01:23:35.846Z,74.50
2019-02-12T01:24:35.506Z,76.70
2019-02-12T01:26:27.720Z,78.70
2019-02-12T01:27:27.924Z,78.80
2019-02-12T01:29:21.575Z,77.70
2019-02-12T01:30:21.498Z,75.50
2019-02-12T01:32:14.648Z,86.20
2019-02-12T01:33:14.347Z,82.90
2019-02-12T01:35:07.149Z,79.30
2019-02-12T01:36:06.904Z,77.50
2019-02-12T01:38:00.050Z,83.30
2019-02-12T01:39:00.302Z,79.80
2019-02-12T01:40:53.662Z,77.60
2019-02-12T01:41:53.349Z,75.50
2019-02-12T01:43:45.688Z,71.90
2019-02-12T01:44:45.935Z,73.90
2019-02-12T01:46:38.216Z,74.00
2019-02-12T01:47:38.243Z,73.60
2019-02-12T01:49:31.619Z,78.70
2019-02-12T01:50:31.629Z,75.80
2019-02-12T01:52:24.313Z,76.20
2019-02-12T01:53:24.065Z,71.40
2019-02-12T01:55:17.013Z,79.50
2019-02-12T01:56:16.950Z,70.40
2019-02-12T01:58:10.262Z,81.10
2019-02-12T01:59:10.296Z,83.90
2019-02-12T02:01:03.521Z,75.60
2019-02-12T02:02:03.408Z,77.20
2019-02-12T02:03:57.298Z,85.00
2019-02-12T02:04:57.177Z,78.30
2019-02-12T02:06:49.163Z,74.70
2019-02-12T02:07:49.223Z,71.10
2019-02-12T02:09:42.653Z,71.40
2019-02-12T02:10:42.198Z,78.90
2019-02-12T02:12:34.516Z,75.50
2019-02-12T02:13:34.758Z,83.60
2019-02-12T02:15:27.397Z,73.80
2019-02-12T02:16:26.833Z,69.60
2019-02-12T02:18:20.520Z,82.30
2019-02-12T02:19:20.212Z,80.90
2019-02-12T02:21:13.788Z,74.60
2019-02-12T02:22:13.514Z,68.10
2019-02-12T02:24:06.990Z,68.10
2019-02-12T02:27:00.480Z,62.10
2019-02-12T02:28:00.203Z,60.80
2019-02-12T02:29:53.590Z,57.80
2019-02-12T02:30:53.837Z,59.40
2019-02-12T02:32:46.710Z,64.90
2019-02-12T02:33:46.107Z,65.00
2019-02-12T02:35:38.461Z,61.40
2019-02-12T02:36:38.463Z,59.00
2019-02-12T02:38:31.038Z,57.10
2019-02-12T02:39:30.565Z,58.70
2019-02-12T02:41:23.471Z,61.20
2019-02-12T02:42:23.430Z,58.80
2019-02-12T02:44:16.225Z,55.50
2019-02-12T02:45:15.753Z,58.60
2019-02-12T02:47:07.671Z,51.40
2019-02-12T02:48:07.637Z,57.50
2019-02-12T02:50:00.433Z,49.70
2019-02-12T02:51:00.252Z,53.60
2019-02-12T02:52:51.930Z,51.40
2019-02-12T02:53:51.818Z,53.40
2019-02-12T02:55:44.713Z,53.20
2019-02-12T02:58:36.535Z,54.30
2019-02-12T02:59:36.715Z,47.20
2019-02-12T03:01:29.046Z,44.80
2019-02-12T03:02:28.836Z,48.80
2019-02-12T03:04:21.386Z,47.40
2019-02-12T03:05:21.150Z,43.10
2019-02-12T03:07:13.704Z,48.60
2019-02-12T03:08:13.496Z,42.50
2019-02-12T03:10:06.071Z,42.80
2019-02-12T03:11:05.844Z,42.20
2019-02-12T03:12:58.575Z,41.50
2019-02-12T03:15:10.746Z,45.10
2019-02-12T03:16:10.702Z,41.10
2019-02-12T03:18:03.164Z,47.20
2019-02-12T03:19:02.828Z,43.20
2019-02-12T03:20:55.134Z,44.30
2019-02-12T03:22:03.401Z,43.30
2019-02-12T03:23:47.887Z,38.70
2019-02-12T03:24:47.451Z,43.50
2019-02-12T03:26:40.087Z,40.30
2019-02-12T03:27:39.846Z,40.70
2019-02-12T03:29:32.659Z,44.90
2019-02-12T03:30:32.419Z,40.40
2019-02-12T03:33:24.502Z,37.40
2019-02-12T03:35:17.263Z,40.20
2019-02-12T03:36:17.070Z,37.20
2019-02-12T03:38:09.221Z,42.60
2019-02-12T03:39:09.451Z,44.50
2019-02-12T03:41:01.737Z,38.70
2019-02-12T03:42:01.942Z,41.00
2019-02-12T03:43:54.201Z,39.70
2019-02-12T03:44:54.106Z,38.10
2019-02-12T03:46:46.773Z,40.60
2019-02-12T03:47:46.414Z,39.40
2019-02-12T03:49:39.376Z,38.70
2019-02-12T03:50:38.557Z,35.90
2019-02-12T03:52:32.512Z,37.80
2019-02-12T03:53:32.136Z,40.50
2019-02-12T03:55:25.513Z,42.80
2019-02-12T03:56:25.474Z,37.80
2019-02-12T03:58:19.062Z,38.60
2019-02-12T03:59:18.644Z,36.40
2019-02-12T04:01:12.023Z,38.50
2019-02-12T04:02:12.269Z,35.30
2019-02-12T04:04:06.301Z,37.00
2019-02-12T04:05:06.080Z,38.30
2019-02-12T04:06:59.452Z,34.40
2019-02-12T04:07:59.466Z,34.60
2019-02-12T04:09:51.773Z,37.20
2019-02-12T04:10:51.792Z,34.90
2019-02-12T04:12:45.185Z,32.40
2019-02-12T04:13:44.954Z,35.50
2019-02-12T04:15:38.764Z,35.20
2019-02-12T04:16:38.496Z,35.80
2019-02-12T04:18:30.597Z,34.90
2019-02-12T04:19:30.847Z,38.40
2019-02-12T04:22:54.805Z,37.20
2019-02-12T04:23:54.023Z,34.80
2019-02-12T04:26:07.703Z,37.80
2019-02-12T04:26:46.326Z,37.10
2019-02-12T04:28:39.252Z,33.30
2019-02-12T04:29:38.400Z,34.80
2019-02-12T04:31:30.749Z,30.40
2019-02-12T04:32:30.779Z,31.90
2019-02-12T04:34:23.428Z,28.90
2019-02-12T04:35:23.315Z,32.20
2019-02-12T04:37:15.767Z,32.90
2019-02-12T04:38:15.664Z,28.80
2019-02-12T04:41:07.813Z,30.00
2019-02-12T04:43:00.458Z,32.00
2019-02-12T04:44:00.364Z,32.00
2019-02-12T04:45:53.018Z,33.10
2019-02-12T04:46:52.797Z,30.40
2019-02-12T04:48:45.086Z,33.40
2019-02-12T04:49:44.792Z,31.50
2019-02-12T04:51:37.977Z,30.40
2019-02-12T04:52:37.398Z,32.00
2019-02-12T04:54:33.347Z,32.10
2019-02-12T04:57:22.288Z,32.70
2019-02-12T04:58:22.283Z,29.80
2019-02-12T05:00:15.007Z,24.50
2019-02-12T05:01:14.388Z,26.20
2019-02-12T05:03:07.138Z,29.20
2019-02-12T05:04:06.697Z,31.30
2019-02-12T05:05:59.290Z,27.60
2019-02-12T05:06:59.053Z,25.40
2019-02-12T05:08:51.551Z,25.20
2019-02-12T05:09:51.403Z,23.80
2019-02-12T05:11:43.517Z,26.60
2019-02-12T05:12:43.850Z,26.00
2019-02-12T05:14:36.666Z,29.10
2019-02-12T05:17:28.369Z,32.70
2019-02-12T05:18:28.167Z,25.70
2019-02-12T05:20:20.464Z,29.10
2019-02-12T05:23:12.637Z,29.80
2019-02-12T05:24:13.148Z,27.50
2019-02-12T05:26:05.140Z,26.20
2019-02-12T05:27:05.411Z,24.70
2019-02-12T05:28:57.398Z,24.10
2019-02-12T05:29:57.612Z,27.80
2019-02-12T05:32:49.614Z,25.70
2019-02-12T05:34:42.225Z,21.90
2019-02-12T05:35:42.282Z,24.70
2019-02-12T05:37:35.202Z,26.30
2019-02-12T05:38:34.342Z,23.20
2019-02-12T05:40:26.660Z,25.40
2019-02-12T05:41:26.909Z,28.00
2019-02-12T05:43:19.235Z,25.30
2019-02-12T05:44:19.277Z,23.40
2019-02-12T05:46:13.766Z,24.50
2019-02-12T05:47:11.348Z,24.00
2019-02-12T05:49:04.678Z,29.60
2019-02-12T05:50:03.689Z,24.30
2019-02-12T05:51:56.115Z,25.90
2019-02-12T05:52:56.245Z,26.90
2019-02-12T05:54:48.905Z,22.00
2019-02-12T05:55:48.370Z,23.30
2019-02-12T05:57:40.668Z,22.90
2019-02-12T05:58:40.878Z,27.90
2019-02-12T06:00:34.273Z,20.60
2019-02-12T06:03:05.350Z,24.90
2019-02-12T06:05:58.965Z,21.90
2019-02-12T06:06:58.555Z,20.00
2019-02-12T06:08:51.901Z,20.90
2019-02-12T06:09:51.900Z,20.90
2019-02-12T06:11:45.288Z,24.50
2019-02-12T06:12:44.457Z,23.90
2019-02-12T06:14:37.001Z,22.80
2019-02-12T06:15:36.541Z,23.10
2019-02-12T06:17:29.373Z,20.30
2019-02-12T06:18:29.137Z,21.50
2019-02-12T06:20:21.454Z,22.60
2019-02-12T06:21:21.487Z,23.80
2019-02-12T06:23:14.019Z,17.60
2019-02-12T06:24:13.808Z,20.10
2019-02-12T06:26:06.318Z,22.30
2019-02-12T06:27:05.932Z,19.70
2019-02-12T06:28:58.524Z,17.80
2019-02-12T06:29:58.473Z,17.80
2019-02-12T06:31:50.913Z,19.10
2019-02-12T06:32:50.583Z,17.90
2019-02-12T06:34:43.102Z,18.30
2019-02-12T06:35:42.914Z,19.00
2019-02-12T06:37:36.546Z,20.30
2019-02-12T06:38:36.539Z,16.50
2019-02-12T06:40:29.046Z,22.60
2019-02-12T06:41:28.876Z,20.00
2019-02-12T06:43:22.039Z,19.50
2019-02-12T06:44:22.044Z,16.20
2019-02-12T06:46:14.157Z,15.70
2019-02-12T06:47:14.079Z,18.30
2019-02-12T06:49:06.238Z,15.90
2019-02-12T06:50:06.471Z,19.00
2019-02-12T06:51:58.738Z,17.00
2019-02-12T06:52:58.528Z,13.20
2019-02-12T06:54:51.135Z,15.90
2019-02-12T06:55:51.135Z,16.20
2019-02-12T06:57:43.508Z,18.40
2019-02-12T06:58:43.426Z,17.90
2019-02-12T07:00:35.879Z,16.50
2019-02-12T07:01:35.834Z,13.20
2019-02-12T07:03:29.243Z,15.30
2019-02-12T07:04:28.107Z,13.50
2019-02-12T07:06:21.553Z,19.90
2019-02-12T07:07:21.434Z,15.30
2019-02-12T07:09:14.796Z,15.40
2019-02-12T07:10:14.789Z,16.00
2019-02-12T07:12:07.133Z,15.30
2019-02-12T07:13:07.148Z,14.90
2019-02-12T07:14:59.703Z,13.00
2019-02-12T07:17:52.617Z,15.00
2019-02-12T07:18:54.531Z,17.60
2019-02-12T07:20:45.025Z,15.90
2019-02-12T07:23:36.888Z,15.40
2019-02-12T07:24:36.874Z,17.10
2019-02-12T07:26:29.481Z,16.40
2019-02-12T07:27:29.214Z,17.10
2019-02-12T07:29:22.438Z,16.20
2019-02-12T07:32:14.062Z,21.20
2019-02-12T07:33:14.110Z,18.00
2019-02-12T07:35:06.327Z,19.30
2019-02-12T07:37:58.740Z,19.10
2019-02-12T07:38:58.279Z,14.80
2019-02-12T07:42:21.027Z,15.40
2019-02-12T07:43:20.849Z,19.60
2019-02-12T07:45:13.430Z,21.20
2019-02-12T07:46:12.909Z,24.10
2019-02-12T07:48:05.272Z,37.10
2019-02-12T07:49:06.082Z,40.90
2019-02-12T07:50:59.149Z,80.70
2019-02-12T07:51:58.866Z,96.40
2019-02-12T07:53:51.212Z,102.10
2019-02-12T07:54:51.210Z,113.60
2019-02-12T07:56:43.724Z,147.60
2019-02-12T07:57:43.282Z,154.20
2019-02-12T07:59:36.974Z,206.50
2019-02-12T08:00:35.579Z,223.30
2019-02-12T08:02:28.147Z,281.10
2019-02-12T08:03:28.167Z,280.90
2019-02-12T08:05:20.945Z,285.10
2019-02-12T08:06:20.658Z,257.00
2019-02-12T08:08:14.195Z,297.40
2019-02-12T08:09:14.001Z,290.30
2019-02-12T08:12:39.790Z,252.20
2019-02-12T08:13:39.406Z,250.50
2019-02-12T08:15:33.221Z,270.20
2019-02-12T08:16:33.029Z,276.20
2019-02-12T08:18:26.101Z,279.40
2019-02-12T08:19:26.326Z,274.00
2019-02-12T08:21:19.712Z,269.00
2019-02-12T08:22:19.470Z,266.90
2019-02-12T08:24:12.824Z,248.40
2019-02-12T08:25:12.782Z,263.00
2019-02-12T08:27:06.635Z,238.20
2019-02-12T08:28:06.360Z,246.90
2019-02-12T08:29:59.515Z,252.10
2019-02-12T08:30:59.740Z,229.30
2019-02-12T08:32:53.302Z,237.40
2019-02-12T08:33:53.101Z,248.70
2019-02-12T08:35:46.188Z,238.00
2019-02-12T08:36:46.154Z,235.90
2019-02-12T08:38:39.787Z,202.80
2019-02-12T08:39:39.546Z,200.60
2019-02-12T08:41:36.949Z,215.90
2019-02-12T08:42:32.861Z,236.60
2019-02-12T08:44:26.489Z,223.30
2019-02-12T08:45:26.445Z,230.60
2019-02-12T08:47:19.822Z,212.30
2019-02-12T08:48:19.773Z,213.30
2019-02-12T08:50:13.369Z,208.10
2019-02-12T08:51:13.179Z,210.90
2019-02-12T08:53:06.621Z,208.30
2019-02-12T08:54:06.560Z,194.00
2019-02-12T08:55:59.809Z,211.00
2019-02-12T08:56:59.844Z,187.70
2019-02-12T09:00:25.086Z,197.20
2019-02-12T09:01:25.267Z,178.10
2019-02-12T09:03:19.410Z,183.20
2019-02-12T09:04:18.380Z,192.40
2019-02-12T09:06:11.684Z,179.60
2019-02-12T09:07:11.707Z,182.20
2019-02-12T09:09:05.880Z,169.20
2019-02-12T09:10:05.059Z,178.00
2019-02-12T09:11:58.654Z,183.30
2019-02-12T09:12:58.863Z,181.60
2019-02-12T09:14:51.958Z,174.60
2019-02-12T09:15:51.959Z,173.20
2019-02-12T09:17:45.094Z,173.70
2019-02-12T09:18:45.092Z,177.90
2019-02-12T09:20:38.649Z,165.80
2019-02-12T09:21:38.441Z,167.60
2019-02-12T09:23:32.016Z,158.60
2019-02-12T09:24:31.754Z,165.80
2019-02-12T09:26:25.916Z,157.30
2019-02-12T09:27:25.122Z,152.40
2019-02-12T09:29:18.448Z,167.40
2019-02-12T09:30:18.662Z,162.40
2019-02-12T09:32:12.016Z,146.60
2019-02-12T09:33:11.787Z,159.70
2019-02-12T09:35:05.407Z,154.20
2019-02-12T09:36:05.118Z,142.40
2019-02-12T09:37:58.941Z,155.00
2019-02-12T09:38:58.748Z,153.40
2019-02-12T09:40:51.844Z,151.70
2019-02-12T09:41:52.052Z,152.70
2019-02-12T09:43:45.629Z,151.80
2019-02-12T09:44:45.162Z,139.60
2019-02-12T09:46:38.785Z,148.60
2019-02-12T09:47:38.531Z,145.50
2019-02-12T09:49:32.128Z,144.70
2019-02-12T09:50:32.088Z,138.40
2019-02-12T09:52:25.259Z,136.50
2019-02-12T09:53:25.202Z,137.10
2019-02-12T09:55:19.032Z,134.20
2019-02-12T09:56:18.535Z,144.60
2019-02-12T09:58:11.943Z,137.20
2019-02-12T09:59:12.155Z,131.00
2019-02-12T10:01:05.475Z,127.60
2019-02-12T10:02:05.254Z,126.20
2019-02-12T10:03:58.865Z,133.90
2019-02-12T10:04:58.820Z,134.10
2019-02-12T10:08:24.975Z,122.10
2019-02-12T10:09:24.754Z,124.20
2019-02-12T10:11:17.884Z,110.00
2019-02-12T10:12:18.348Z,123.90
2019-02-12T10:14:11.721Z,111.60
2019-02-12T10:15:11.443Z,115.40
2019-02-12T10:17:04.831Z,113.40
2019-02-12T10:18:04.790Z,112.70
2019-02-12T10:19:58.113Z,108.90
2019-02-12T10:20:58.130Z,106.30
2019-02-12T10:22:51.262Z,103.20
2019-02-12T10:23:51.280Z,101.60
2019-02-12T10:25:44.638Z,101.40
2019-02-12T10:26:44.395Z,103.60
2019-02-12T10:28:37.693Z,105.90
2019-02-12T10:29:37.498Z,106.40
2019-02-12T10:31:31.233Z,99.50
2019-02-12T10:32:30.800Z,104.30
2019-02-12T10:34:24.254Z,104.50
2019-02-12T10:35:24.384Z,100.20
2019-02-12T10:37:17.751Z,97.10
2019-02-12T10:38:17.764Z,102.10
2019-02-12T10:40:10.847Z,106.10
2019-02-12T10:41:10.838Z,98.80
2019-02-12T10:43:04.437Z,96.70
2019-02-12T10:44:04.448Z,95.60
2019-02-12T10:45:57.777Z,97.90
2019-02-12T10:46:57.746Z,91.10
2019-02-12T10:48:52.708Z,99.30
2019-02-12T10:49:50.875Z,109.10
2019-02-12T10:51:44.514Z,88.80
2019-02-12T10:52:44.465Z,98.40
2019-02-12T10:54:38.058Z,91.10
2019-02-12T10:55:37.568Z,91.80
2019-02-12T10:57:31.199Z,90.60
2019-02-12T10:58:31.198Z,86.80
2019-02-12T11:00:24.728Z,94.80
2019-02-12T11:01:24.243Z,82.40
2019-02-12T11:03:17.605Z,84.20
2019-02-12T11:04:17.627Z,85.60
2019-02-12T11:06:11.430Z,82.60
2019-02-12T11:07:11.183Z,83.30
2019-02-12T11:09:04.516Z,82.80
2019-02-12T11:10:04.526Z,81.50
2019-02-12T11:11:57.880Z,81.20
2019-02-12T11:12:57.877Z,81.30
2019-02-12T11:14:51.274Z,73.80
2019-02-12T11:15:50.972Z,70.30
2019-02-12T11:17:44.804Z,77.50
2019-02-12T11:18:44.345Z,75.20
2019-02-12T11:20:37.964Z,81.00
2019-02-12T11:21:37.961Z,82.00
2019-02-12T11:23:31.012Z,68.10
2019-02-12T11:24:35.425Z,69.70
2019-02-12T11:26:24.172Z,73.50
2019-02-12T11:27:24.133Z,67.80
2019-02-12T11:29:17.504Z,68.00
2019-02-12T11:30:17.458Z,68.10
2019-02-12T11:32:10.845Z,71.10
2019-02-12T11:33:10.820Z,70.20
2019-02-12T11:35:04.414Z,65.70
2019-02-12T11:36:03.929Z,73.10
2019-02-12T11:37:57.505Z,68.10
2019-02-12T11:38:57.516Z,67.90
2019-02-12T11:40:51.141Z,67.40
2019-02-12T11:41:50.605Z,63.00
2019-02-12T11:43:44.210Z,66.40
2019-02-12T11:44:43.977Z,64.00
2019-02-12T11:46:37.607Z,61.10
2019-02-12T11:47:37.286Z,61.00
2019-02-12T11:49:30.679Z,61.40
2019-02-12T11:50:30.662Z,68.90
2019-02-12T11:52:24.421Z,58.10
2019-02-12T11:53:24.240Z,57.90
2019-02-12T11:55:17.337Z,57.40
2019-02-12T11:56:17.555Z,61.50
2019-02-12T11:58:11.122Z,58.60
2019-02-12T11:59:10.933Z,64.10
2019-02-12T12:01:04.289Z,63.80
2019-02-12T12:02:04.246Z,61.20
2019-02-12T12:03:57.881Z,70.90
2019-02-12T12:04:57.626Z,64.70
2019-02-12T12:06:50.755Z,67.90
2019-02-12T12:07:50.700Z,72.90
2019-02-12T12:09:44.855Z,74.00
2019-02-12T12:10:44.808Z,73.00
2019-02-12T12:12:37.942Z,75.70
2019-02-12T12:13:37.925Z,73.30
2019-02-12T12:15:31.729Z,71.40
2019-02-12T12:16:31.572Z,70.30
2019-02-12T12:18:24.753Z,71.90
2019-02-12T12:19:24.875Z,63.10
2019-02-12T12:21:18.186Z,78.30
2019-02-12T12:22:18.212Z,75.90
2019-02-12T12:24:11.622Z,63.80
2019-02-12T12:25:11.567Z,68.90
2019-02-12T12:27:04.947Z,65.20
2019-02-12T12:28:04.950Z,72.30
2019-02-12T12:29:58.299Z,72.70
2019-02-12T12:30:58.058Z,67.30
2019-02-12T12:32:51.842Z,66.30
2019-02-12T12:33:53.105Z,65.90
2019-02-12T12:35:44.965Z,64.20
2019-02-12T12:36:44.996Z,64.80
2019-02-12T12:38:38.533Z,65.90
2019-02-12T12:39:38.090Z,67.00
2019-02-12T12:41:31.674Z,66.70
2019-02-12T12:42:31.403Z,63.20
2019-02-12T12:44:25.027Z,62.50
2019-02-12T12:45:25.021Z,62.10
2019-02-12T12:47:18.330Z,63.30
2019-02-12T12:48:18.125Z,62.60
2019-02-12T12:50:11.964Z,67.20
2019-02-12T12:51:11.456Z,61.40
2019-02-12T12:53:05.048Z,67.20
2019-02-12T12:54:05.049Z,63.30
2019-02-12T12:55:58.604Z,59.30
2019-02-12T12:56:58.136Z,68.40
2019-02-12T12:58:51.735Z,57.50
2019-02-12T12:59:51.727Z,60.20
2019-02-12T13:01:45.041Z,64.40
2019-02-12T13:02:44.871Z,64.60
2019-02-12T13:04:38.511Z,66.90
2019-02-12T13:05:38.439Z,55.70
2019-02-12T13:07:31.759Z,65.00
2019-02-12T13:08:31.740Z,62.40
2019-02-12T13:10:25.143Z,59.30
2019-02-12T13:11:26.591Z,58.50
2019-02-12T13:13:18.710Z,62.60
2019-02-12T13:14:18.467Z,61.80
2019-02-12T13:16:11.833Z,60.80
2019-02-12T13:17:11.636Z,58.70
2019-02-12T13:19:05.132Z,57.40
2019-02-12T13:20:05.209Z,60.10
2019-02-12T13:21:58.296Z,56.00
2019-02-12T13:22:58.553Z,56.80
2019-02-12T13:24:52.094Z,59.20
2019-02-12T13:25:51.892Z,59.40
2019-02-12T13:27:45.177Z,53.80
2019-02-12T13:28:45.234Z,56.10
2019-02-12T13:30:38.779Z,58.30
2019-02-12T13:31:38.524Z,56.10
2019-02-12T13:33:31.694Z,57.30
2019-02-12T13:34:31.876Z,56.20
2019-02-12T13:36:25.294Z,54.40
2019-02-12T13:37:25.233Z,51.40
2019-02-12T13:39:18.635Z,59.10
2019-02-12T13:40:18.362Z,58.50
2019-02-12T13:42:11.886Z,57.60
2019-02-12T13:43:11.913Z,57.70
2019-02-12T13:45:05.281Z,56.60
2019-02-12T13:46:05.315Z,57.90
2019-02-12T13:47:58.580Z,54.70
2019-02-12T13:48:58.623Z,55.10
2019-02-12T13:50:51.876Z,57.80
2019-02-12T13:51:51.742Z,58.50
2019-02-12T13:53:45.295Z,60.00
2019-02-12T13:54:45.048Z,54.50
2019-02-12T13:56:38.419Z,62.10
2019-02-12T13:57:38.421Z,53.10
2019-02-12T13:59:33.562Z,52.40
2019-02-12T14:00:32.004Z,56.60
2019-02-12T14:02:25.098Z,55.30
2019-02-12T14:03:25.086Z,59.00
2019-02-12T14:05:18.659Z,56.90
2019-02-12T14:06:18.741Z,59.20
2019-02-12T14:08:11.789Z,54.10
2019-02-12T14:09:11.788Z,55.60
2019-02-12T14:11:05.335Z,54.30
2019-02-12T14:12:05.159Z,53.90
2019-02-12T14:13:58.713Z,54.00
2019-02-12T14:14:58.730Z,51.90
2019-02-12T14:16:52.086Z,59.20
2019-02-12T14:17:52.062Z,56.60
2019-02-12T14:19:45.166Z,53.30
2019-02-12T14:20:45.159Z,54.30
2019-02-12T14:22:38.734Z,57.00
2019-02-12T14:23:38.497Z,60.00
2019-02-12T14:25:32.088Z,55.40
2019-02-12T14:26:31.869Z,57.20
2019-02-12T14:28:25.653Z,53.40
2019-02-12T14:29:25.418Z,55.40
2019-02-12T14:31:18.568Z,57.30
2019-02-12T14:32:18.808Z,59.40
2019-02-12T14:34:12.677Z,57.30
2019-02-12T14:35:12.140Z,54.90
2019-02-12T14:37:05.224Z,58.80
2019-02-12T14:38:05.469Z,59.80
2019-02-12T14:39:58.772Z,56.50
2019-02-12T14:40:58.595Z,60.30
2019-02-12T14:42:52.179Z,63.80
2019-02-12T14:43:52.126Z,61.10
2019-02-12T14:45:45.713Z,56.80
2019-02-12T14:46:45.257Z,59.50
2019-02-12T14:48:38.600Z,60.50
2019-02-12T14:49:38.826Z,57.00
2019-02-12T14:51:32.163Z,60.20
2019-02-12T14:52:32.238Z,60.30
2019-02-12T14:54:25.520Z,56.60
2019-02-12T14:55:33.365Z,63.90
2019-02-12T14:57:18.987Z,55.50
2019-02-12T14:58:18.663Z,57.00
2019-02-12T15:00:12.250Z,55.90
2019-02-12T15:01:11.982Z,53.00
2019-02-12T15:03:05.539Z,53.30
2019-02-12T15:04:05.575Z,54.90
2019-02-12T15:05:58.228Z,57.90
2019-02-12T15:06:58.472Z,56.80
2019-02-12T15:08:51.737Z,56.20
2019-02-12T15:09:51.522Z,60.00
2019-02-12T15:11:45.182Z,58.60
2019-02-12T15:12:44.868Z,54.90
2019-02-12T15:14:38.646Z,54.40
2019-02-12T15:15:38.472Z,52.60
2019-02-12T15:17:31.833Z,51.30
2019-02-12T15:18:31.840Z,51.10
2019-02-12T15:20:25.141Z,49.40
2019-02-12T15:21:24.933Z,50.00
2019-02-12T15:23:18.016Z,57.70
2019-02-12T15:24:17.766Z,55.40
2019-02-12T15:26:11.557Z,52.80
2019-02-12T15:27:11.411Z,51.20
2019-02-12T15:29:04.723Z,53.60
2019-02-12T15:30:04.691Z,53.50
2019-02-12T15:31:58.271Z,53.10
2019-02-12T15:32:58.059Z,53.00
2019-02-12T15:34:51.192Z,50.90
2019-02-12T15:35:51.172Z,55.70
2019-02-12T15:37:44.724Z,51.80
2019-02-12T15:38:44.513Z,56.40
2019-02-12T15:40:38.091Z,54.40
2019-02-12T15:41:38.082Z,55.00
2019-02-12T15:43:31.159Z,60.00
2019-02-12T15:44:30.703Z,59.60
2019-02-12T15:46:24.069Z,61.20
2019-02-12T15:47:24.283Z,60.20
2019-02-12T15:49:17.855Z,63.80
2019-02-12T15:50:17.641Z,62.50
2019-02-12T15:52:10.987Z,56.50
2019-02-12T15:53:10.990Z,59.10
2019-02-12T15:55:04.313Z,56.80
2019-02-12T15:56:04.326Z,56.80
2019-02-12T15:57:58.039Z,55.20
2019-02-12T15:58:57.457Z,56.90
2019-02-12T16:00:51.297Z,60.30
2019-02-12T16:01:51.263Z,60.80
2019-02-12T16:03:44.113Z,57.50
2019-02-12T16:04:45.851Z,60.40
2019-02-12T16:06:37.906Z,60.60
2019-02-12T16:07:37.446Z,61.90
2019-02-12T16:09:31.560Z,58.20
2019-02-12T16:10:31.024Z,60.30
2019-02-12T16:12:26.885Z,64.50
2019-02-12T16:13:25.903Z,58.50
2019-02-12T16:15:21.507Z,68.70
2019-02-12T16:16:19.543Z,66.00
2019-02-12T16:18:12.834Z,67.90
2019-02-12T16:19:12.846Z,67.20
2019-02-12T16:21:06.209Z,69.60
2019-02-12T16:22:06.204Z,72.00
2019-02-12T16:23:59.736Z,65.00
2019-02-12T16:24:59.314Z,65.20
2019-02-12T16:26:52.662Z,64.20
2019-02-12T16:27:52.884Z,65.40
2019-02-12T16:29:46.244Z,66.80
2019-02-12T16:30:45.975Z,64.00
2019-02-12T16:32:39.344Z,65.10
2019-02-12T16:33:39.586Z,60.50
2019-02-12T16:35:33.137Z,61.90
2019-02-12T16:36:32.664Z,68.10
2019-02-12T16:38:26.249Z,62.40
2019-02-12T16:39:26.038Z,65.20
2019-02-12T16:41:19.606Z,61.60
2019-02-12T16:42:19.571Z,63.20
2019-02-12T16:44:12.718Z,65.40
2019-02-12T16:45:12.960Z,63.00
2019-02-12T16:47:06.317Z,65.50
2019-02-12T16:48:06.295Z,64.80
2019-02-12T16:49:59.732Z,64.60
2019-02-12T16:50:59.624Z,64.70
2019-02-12T16:52:53.233Z,67.30
2019-02-12T16:53:52.747Z,61.40
2019-02-12T16:55:46.364Z,58.60
2019-02-12T16:56:46.095Z,64.30
2019-02-12T16:58:39.879Z,60.00
2019-02-12T16:59:39.677Z,62.50
2019-02-12T17:01:33.027Z,57.40
2019-02-12T17:02:33.016Z,60.80
2019-02-12T17:04:26.332Z,60.00
2019-02-12T17:05:26.390Z,58.90
2019-02-12T17:07:19.524Z,64.90
2019-02-12T17:08:19.450Z,62.20
2019-02-12T17:10:13.015Z,61.50
2019-02-12T17:11:13.045Z,60.90
2019-02-12T17:13:06.423Z,62.90
2019-02-12T17:14:06.407Z,62.60
2019-02-12T17:15:59.958Z,61.10
2019-02-12T17:16:59.493Z,60.10
2019-02-12T17:18:53.661Z,62.90
2019-02-12T17:19:53.120Z,62.70
2019-02-12T17:21:46.438Z,60.80
2019-02-12T17:22:46.217Z,61.00
2019-02-12T17:24:39.752Z,60.00
2019-02-12T17:25:39.758Z,57.20
2019-02-12T17:27:33.369Z,64.80
2019-02-12T17:28:32.875Z,61.80
2019-02-12T17:30:26.491Z,60.00
2019-02-12T17:31:26.202Z,65.60
2019-02-12T17:33:20.031Z,59.80
2019-02-12T17:34:19.584Z,60.80
2019-02-12T17:36:13.029Z,56.30
2019-02-12T17:37:12.904Z,61.60
2019-02-12T17:39:06.498Z,58.50
2019-02-12T17:40:06.509Z,59.90
2019-02-12T17:41:59.353Z,56.30
2019-02-12T17:42:59.379Z,55.60
2019-02-12T17:44:52.665Z,64.90
2019-02-12T17:45:52.450Z,58.80
2019-02-12T17:47:46.058Z,58.70
2019-02-12T17:48:45.820Z,63.60
2019-02-12T17:50:39.598Z,62.80
2019-02-12T17:51:39.134Z,57.90
2019-02-12T17:53:32.745Z,63.30
2019-02-12T17:54:32.753Z,62.50
2019-02-12T17:56:26.204Z,62.90
2019-02-12T17:57:26.077Z,62.00
2019-02-12T17:59:19.185Z,67.30
2019-02-12T18:00:19.409Z,67.10
2019-02-12T18:02:13.020Z,65.90
2019-02-12T18:03:12.553Z,66.80
2019-02-12T18:05:05.895Z,61.80
2019-02-12T18:06:06.124Z,67.50
2019-02-12T18:07:59.653Z,62.30
2019-02-12T18:08:59.506Z,60.40
2019-02-12T18:10:52.867Z,71.40
2019-02-12T18:11:52.560Z,69.70
2019-02-12T18:13:46.139Z,70.00
2019-02-12T18:14:46.195Z,65.20
2019-02-12T18:16:39.517Z,74.90
2019-02-12T18:17:39.282Z,67.00
2019-02-12T18:19:33.428Z,70.40
2019-02-12T18:20:32.593Z,75.30
2019-02-12T18:22:26.186Z,73.70
2019-02-12T18:23:26.203Z,72.80
2019-02-12T18:25:19.282Z,71.90
2019-02-12T18:26:19.069Z,74.80
2019-02-12T18:28:12.188Z,76.50
2019-02-12T18:29:12.401Z,71.30
2019-02-12T18:31:06.020Z,68.70
2019-02-12T18:32:05.783Z,71.90
2019-02-12T18:33:59.132Z,73.60
2019-02-12T18:34:59.075Z,69.50
2019-02-12T18:36:52.660Z,69.90
2019-02-12T18:37:52.210Z,72.00
2019-02-12T18:39:45.959Z,68.10
2019-02-12T18:40:45.747Z,71.10
2019-02-12T18:42:39.361Z,69.30
2019-02-12T18:43:39.155Z,66.70
2019-02-12T18:45:32.482Z,71.10
2019-02-12T18:46:32.452Z,69.60
2019-02-12T18:48:25.831Z,70.10
2019-02-12T18:49:25.853Z,68.10
2019-02-12T18:51:18.953Z,70.60
2019-02-12T18:52:18.944Z,68.10
2019-02-12T18:54:12.504Z,67.40
2019-02-12T18:55:12.512Z,61.10
2019-02-12T18:57:05.610Z,65.40
2019-02-12T18:58:05.859Z,64.40
2019-02-12T18:59:59.441Z,67.10